Terminal Aerodrome Forecast
Issued by NWS

Home | Current Version | Previous Version | Text Only | Print | Product List | Glossary On
Versions: 1 2 3 4 5 6 7 8 9 10 11 12 13 14 15 16 17 18 19 20
000
FTUS45 KFGZ 271830 AAA
TAFSEZ
TAF AMD
KSEZ 271830Z 2719/2818 24006KT P6SM SCT060 BKN120
      TEMPO 2719/2723 VRB15G30KT 4SM TSRA OVC050CB
     FM280200 04006KT P6SM FEW060 SCT120
      AMD NOT SKED=

USA.gov is the U.S. government's official web portal to all federal, state and local government web resources and services.